Terminal Aerodrome Forecast
Issued by NWS Missoula, MT

Home | Current Version | Previous Version | Text Only | Print | Product List | Glossary On
Versions: 1 2 3 4 5 6 7 8 9 10 11 12 13 14 15 16 17
832
FTUS45 KMSO 232320
TAFGPI
TAF
KGPI 232320Z 2400/2424 05004KT P6SM BKN080
     FM241100 00000KT P6SM VCFG BKN150
     FM241300 00000KT 4SM BR VCFG FEW005 SCT150
     FM241600 VRB03KT P6SM BKN050=

USA.gov is the U.S. government's official web portal to all federal, state and local government web resources and services.